Lone Star Executive Airport
KCXO : rendu visible

Aérodrome :











RETROUVEZ-NOUS SUR...

 
LOGIN :

S'inscrire | Disclaimer

   EN    FR    IT 

 









Légende :    VFR   VFR Marginal   IFR   IFR Intensif   IFR Très Intensif
Visi : 
Plafond : 
>= 8 km
>= 3000ft
5 à 8 km
1000 à 3000 ft
1500m à 5 km
500 à 1000 ft
800 à 1500m
200 à 500 ft
< 800m
< 200 ft
Symboles :   Orages  Brouillard  Fortes neiges  Fortes précipitations  Vent > 20 kt






- Altitude de l'aérodrome : 245 ft


KCXO - Lone Star Executive

DERNIER METAR :
  • 200400Z AUTO 00000KT 1SM BR CLR 12/11 A3002 RMK AO2 T01170111

METARs EXPIRÉS :
  • 200353Z AUTO 00000KT 2SM BR CLR 12/11 A3002 RMK AO2 VIS 1V5 SLP163 T01220111
  • 200253Z AUTO 14004KT 10SM CLR 14/12 A3002 RMK AO2 SLP162 T01390117 51016
  • 200153Z 14004KT 10SM CLR 15/12 A3000 RMK AO2 SLP157 T01500122

TAF KCXO
Valide du 20 à 00h jusqu'au 21 à 00h UTC


192332Z 2000/2024 16005KT P6SM FEW250
FM201000 14004KT P6SM SCT025
FM201400 14007KT P6SM SCT015 BKN035
FM201800 16014G22KT P6SM BKN050



MET'MAP, la Météo Aéronautique d'un coup d'oeil ! - Copyright ORBIFLY Décembre 2007 - Disclaimer

ORBIFLY MET'MAP TEAM :

Programmation & Développement : Alexandra Zaïnal
Conception & Développement : Baudouin d'Aumeries
Co-Programmation & Développement : Marc-Olivier Méhu
Soutien technique & logistique : Manuel Goepfert

Contact : metmap@orbifly.com




SOURCES & CREDITS :

   NOAA       Earth
Advisory